createdAt,value
2018-03-04T00:00:24.881Z,24.75
2018-03-04T00:02:54.321Z,24.05
2018-03-04T00:05:23.748Z,23.50
2018-03-04T00:07:53.172Z,22.67
2018-03-04T00:10:22.609Z,25.77
2018-03-04T00:12:52.031Z,26.98
2018-03-04T00:15:21.500Z,23.75
2018-03-04T00:17:50.895Z,22.70
2018-03-04T00:20:20.315Z,24.95
2018-03-04T00:22:49.714Z,24.92
2018-03-04T00:25:19.143Z,25.27
2018-03-04T00:27:48.565Z,25.67
2018-03-04T00:30:17.991Z,24.12
2018-03-04T00:32:47.426Z,24.30
2018-03-04T00:35:16.918Z,24.27
2018-03-04T00:37:46.685Z,26.45
2018-03-04T00:40:16.506Z,24.33
2018-03-04T00:42:45.964Z,25.60
2018-03-04T00:45:15.434Z,23.85
2018-03-04T00:47:44.979Z,26.17
2018-03-04T00:50:14.414Z,25.20
2018-03-04T00:52:43.922Z,26.62
2018-03-04T00:55:13.343Z,26.27
2018-03-04T00:57:42.752Z,26.60
2018-03-04T01:00:12.259Z,23.92
2018-03-04T01:02:41.636Z,24.52
2018-03-04T01:05:11.305Z,26.30
2018-03-04T01:07:40.736Z,26.30
2018-03-04T01:10:10.232Z,24.60
2018-03-04T01:12:39.663Z,24.67
2018-03-04T01:15:09.241Z,22.83
2018-03-04T01:17:38.697Z,25.80
2018-03-04T01:20:08.204Z,25.52
2018-03-04T01:22:37.675Z,23.65
2018-03-04T01:25:07.135Z,25.17
2018-03-04T01:27:36.545Z,27.42
2018-03-04T01:30:06.068Z,26.42
2018-03-04T01:32:36.439Z,26.23
2018-03-04T01:35:06.022Z,25.95
2018-03-04T01:37:35.495Z,26.10
2018-03-04T01:40:05.313Z,26.83
2018-03-04T01:42:34.747Z,25.50
2018-03-04T01:45:04.336Z,26.40
2018-03-04T01:47:33.731Z,28.40
2018-03-04T01:50:03.954Z,27.95
2018-03-04T01:52:33.573Z,27.33
2018-03-04T01:55:03.203Z,29.35
2018-03-04T01:57:32.671Z,28.50
2018-03-04T02:00:02.129Z,28.50
2018-03-04T02:02:31.586Z,27.92
2018-03-04T02:05:01.021Z,29.25
2018-03-04T02:07:30.410Z,28.30
2018-03-04T02:09:59.858Z,28.48
2018-03-04T02:12:29.264Z,27.33
2018-03-04T02:14:58.703Z,27.30
2018-03-04T02:17:28.121Z,30.33
2018-03-04T02:19:57.575Z,28.52
2018-03-04T02:22:27.021Z,31.05
2018-03-04T02:24:56.442Z,27.10
2018-03-04T02:27:25.869Z,25.60
2018-03-04T02:29:55.274Z,30.88
2018-03-04T02:32:24.733Z,27.52
2018-03-04T02:34:54.141Z,28.25
2018-03-04T02:37:23.557Z,28.60
2018-03-04T02:39:52.980Z,27.55
2018-03-04T02:42:22.389Z,26.52
2018-03-04T02:44:51.837Z,27.75
2018-03-04T02:47:21.238Z,25.40
2018-03-04T02:49:50.672Z,27.98
2018-03-04T02:52:20.047Z,29.75
2018-03-04T02:54:49.496Z,27.42
2018-03-04T02:57:18.898Z,29.73
2018-03-04T02:59:48.345Z,29.30
2018-03-04T03:02:17.742Z,29.65
2018-03-04T03:04:47.171Z,28.30
2018-03-04T03:07:16.579Z,27.50
2018-03-04T03:09:46.004Z,31.42
2018-03-04T03:12:15.425Z,31.33
2018-03-04T03:14:44.845Z,30.85
2018-03-04T03:17:14.266Z,29.23
2018-03-04T03:19:43.742Z,30.48
2018-03-04T03:22:13.148Z,27.48
2018-03-04T03:24:42.578Z,28.80
2018-03-04T03:27:11.984Z,29.20
2018-03-04T03:29:41.422Z,29.40
2018-03-04T03:32:10.808Z,26.40
2018-03-04T03:34:40.247Z,31.12
2018-03-04T03:37:09.651Z,30.92
2018-03-04T03:39:39.077Z,30.45
2018-03-04T03:42:08.548Z,30.48
2018-03-04T03:44:38.703Z,30.73
2018-03-04T03:47:08.101Z,32.65
2018-03-04T03:49:37.537Z,32.10
2018-03-04T03:52:06.930Z,31.10
2018-03-04T03:54:36.353Z,33.03
2018-03-04T03:57:05.760Z,31.12
2018-03-04T03:59:35.201Z,30.17
2018-03-04T04:02:04.629Z,29.80
2018-03-04T04:04:34.013Z,30.75
2018-03-04T04:07:03.438Z,29.27
2018-03-04T04:09:32.838Z,27.40
2018-03-04T04:12:02.285Z,28.12
2018-03-04T04:14:31.679Z,29.42
2018-03-04T04:17:01.109Z,29.35
2018-03-04T04:19:30.562Z,30.70
2018-03-04T04:21:59.984Z,30.75
2018-03-04T04:24:29.407Z,27.80
2018-03-04T04:26:58.846Z,28.48
2018-03-04T04:29:28.280Z,31.20
2018-03-04T04:31:57.673Z,30.50
2018-03-04T04:34:27.096Z,31.80
2018-03-04T04:36:56.501Z,30.23
2018-03-04T04:39:25.966Z,31.42
2018-03-04T04:41:55.375Z,30.77
2018-03-04T04:44:24.800Z,32.60
2018-03-04T04:46:54.318Z,31.65
2018-03-04T04:49:23.726Z,32.75
2018-03-04T04:51:53.152Z,30.25
2018-03-04T04:54:22.570Z,30.02
2018-03-04T04:56:51.977Z,30.08
2018-03-04T04:59:21.384Z,29.12
2018-03-04T05:01:50.800Z,31.55
2018-03-04T05:04:20.219Z,31.15
2018-03-04T05:06:49.651Z,29.83
2018-03-04T05:09:19.090Z,31.40
2018-03-04T05:11:48.498Z,31.90
2018-03-04T05:14:17.935Z,29.90
2018-03-04T05:16:47.342Z,31.83
2018-03-04T05:19:16.767Z,31.55
2018-03-04T05:21:46.215Z,28.35
2018-03-04T05:24:15.611Z,30.33
2018-03-04T05:26:45.046Z,28.73
2018-03-04T05:29:14.428Z,31.35
2018-03-04T05:31:43.875Z,32.88
2018-03-04T05:34:13.909Z,31.45
2018-03-04T05:36:43.294Z,32.42
2018-03-04T05:39:12.735Z,30.25
2018-03-04T05:41:42.131Z,31.95
2018-03-04T05:44:11.547Z,30.70
2018-03-04T05:46:40.959Z,29.50
2018-03-04T05:49:10.387Z,31.50
2018-03-04T05:51:39.798Z,33.28
2018-03-04T05:54:09.258Z,33.67
2018-03-04T05:56:38.664Z,29.70
2018-03-04T05:59:08.065Z,31.40
2018-03-04T06:01:37.497Z,30.25
2018-03-04T06:04:06.902Z,30.60
2018-03-04T06:06:36.337Z,31.75
2018-03-04T06:09:05.750Z,29.90
2018-03-04T06:11:35.185Z,33.50
2018-03-04T06:14:04.600Z,32.72
2018-03-04T06:16:34.069Z,32.85
2018-03-04T06:19:03.482Z,30.67
2018-03-04T06:21:32.931Z,31.40
2018-03-04T06:24:02.316Z,32.30
2018-03-04T06:26:31.727Z,29.48
2018-03-04T06:29:01.166Z,34.45
2018-03-04T06:31:30.568Z,32.30
2018-03-04T06:34:00.000Z,31.40
2018-03-04T06:36:29.419Z,31.67
2018-03-04T06:38:58.844Z,31.92
2018-03-04T06:41:28.262Z,31.98
2018-03-04T06:43:57.675Z,33.47
2018-03-04T06:46:27.060Z,31.20
2018-03-04T06:48:56.506Z,30.35
2018-03-04T06:51:25.926Z,32.10
2018-03-04T06:53:55.431Z,32.42
2018-03-04T06:56:24.815Z,30.77
2018-03-04T06:58:54.220Z,31.12
2018-03-04T07:01:23.641Z,31.00
2018-03-04T07:03:53.038Z,30.33
2018-03-04T07:06:22.475Z,31.02
2018-03-04T07:08:51.859Z,32.78
2018-03-04T07:11:21.329Z,31.05
2018-03-04T07:13:50.710Z,34.90
2018-03-04T07:16:20.157Z,32.10
2018-03-04T07:18:49.557Z,31.75
2018-03-04T07:21:18.981Z,35.22
2018-03-04T07:23:48.394Z,29.63
2018-03-04T07:26:17.811Z,30.95
2018-03-04T07:28:47.221Z,33.58
2018-03-04T07:31:16.650Z,30.60
2018-03-04T07:33:46.078Z,32.53
2018-03-04T07:36:15.500Z,32.75
2018-03-04T07:38:44.941Z,31.58
2018-03-04T07:41:14.383Z,32.20
2018-03-04T07:43:43.797Z,34.67
2018-03-04T07:46:13.194Z,34.17
2018-03-04T07:48:42.603Z,29.87
2018-03-04T07:51:12.015Z,34.47
2018-03-04T07:53:41.467Z,33.97
2018-03-04T07:56:10.877Z,32.40
2018-03-04T07:58:40.291Z,32.72
2018-03-04T08:01:09.724Z,30.77
2018-03-04T08:03:39.294Z,32.95
2018-03-04T08:06:08.692Z,32.40
2018-03-04T08:08:38.134Z,35.78
2018-03-04T08:11:07.559Z,31.37
2018-03-04T08:13:36.981Z,31.70
2018-03-04T08:16:06.459Z,34.70
2018-03-04T08:18:35.973Z,34.20
2018-03-04T08:21:05.394Z,33.65
2018-03-04T08:23:34.808Z,31.17
2018-03-04T08:26:10.273Z,34.42
2018-03-04T08:28:39.804Z,32.20
2018-03-04T08:31:09.186Z,31.12
2018-03-04T08:33:39.031Z,33.30
2018-03-04T08:36:08.472Z,34.13
2018-03-04T08:38:37.935Z,31.35
2018-03-04T08:41:07.369Z,36.38
2018-03-04T08:43:37.271Z,36.00
2018-03-04T08:46:06.719Z,32.75
2018-03-04T08:48:36.172Z,31.62
2018-03-04T08:51:05.562Z,31.50
2018-03-04T08:53:35.027Z,34.10
2018-03-04T08:56:04.436Z,30.85
2018-03-04T08:58:33.911Z,33.70
2018-03-04T09:01:03.305Z,32.88
2018-03-04T09:03:32.772Z,32.60
2018-03-04T09:06:02.162Z,28.35
2018-03-04T09:08:31.586Z,35.42
2018-03-04T09:11:01.096Z,31.73
2018-03-04T09:13:30.574Z,34.45
2018-03-04T09:15:59.964Z,38.55
2018-03-04T09:18:29.389Z,34.15
2018-03-04T09:20:58.794Z,35.50
2018-03-04T09:23:28.270Z,33.83
2018-03-04T09:25:57.700Z,32.40
2018-03-04T09:28:27.091Z,30.52
2018-03-04T09:30:56.738Z,32.25
2018-03-04T09:33:26.878Z,31.10
2018-03-04T09:35:56.336Z,34.80
2018-03-04T09:38:25.762Z,34.53
2018-03-04T09:40:55.157Z,31.95
2018-03-04T09:43:24.577Z,34.05
2018-03-04T09:45:53.998Z,33.40
2018-03-04T09:48:23.434Z,34.78
2018-03-04T09:50:52.910Z,34.08
2018-03-04T09:53:22.321Z,34.60
2018-03-04T09:55:51.730Z,32.65
2018-03-04T09:58:21.159Z,34.70
2018-03-04T10:00:50.581Z,35.00
2018-03-04T10:03:20.019Z,38.42
2018-03-04T10:05:49.490Z,37.05
2018-03-04T10:08:18.922Z,36.80
2018-03-04T10:10:48.316Z,35.85
2018-03-04T10:13:17.745Z,35.15
2018-03-04T10:15:47.181Z,31.87
2018-03-04T10:18:16.606Z,34.50
2018-03-04T10:20:46.049Z,33.75
2018-03-04T10:23:15.496Z,34.65
2018-03-04T10:25:44.947Z,35.55
2018-03-04T10:28:14.365Z,34.17
2018-03-04T10:30:43.748Z,35.00
2018-03-04T10:33:13.216Z,36.83
2018-03-04T10:35:43.123Z,38.47
2018-03-04T10:38:12.556Z,37.70
2018-03-04T10:40:41.928Z,35.47
2018-03-04T10:43:11.365Z,38.83
2018-03-04T10:45:40.817Z,37.35
2018-03-04T10:48:10.222Z,40.85
2018-03-04T10:50:39.619Z,37.25
2018-03-04T10:53:09.059Z,35.67
2018-03-04T10:55:38.463Z,38.10
2018-03-04T10:58:07.902Z,38.10
2018-03-04T11:00:43.180Z,36.47
2018-03-04T11:03:16.282Z,37.53
2018-03-04T11:05:45.684Z,35.97
2018-03-04T11:08:15.153Z,36.30
2018-03-04T11:10:44.570Z,37.72
2018-03-04T11:13:13.966Z,34.15
2018-03-04T11:15:43.809Z,35.05
2018-03-04T11:18:13.273Z,34.25
2018-03-04T11:20:42.658Z,30.20
2018-03-04T11:23:12.129Z,35.40
2018-03-04T11:25:41.539Z,32.28
2018-03-04T11:28:10.979Z,36.60
2018-03-04T11:30:40.382Z,35.90
2018-03-04T11:33:09.795Z,35.33
2018-03-04T11:35:39.239Z,35.10
2018-03-04T11:38:08.651Z,37.53
2018-03-04T11:40:38.073Z,36.35
2018-03-04T11:43:07.530Z,37.50
2018-03-04T11:45:36.923Z,36.38
2018-03-04T11:48:06.397Z,38.30
2018-03-04T11:50:35.787Z,36.55
2018-03-04T11:53:05.239Z,37.40
2018-03-04T11:55:34.699Z,35.47
2018-03-04T11:58:04.152Z,34.58
2018-03-04T12:00:33.616Z,34.72
2018-03-04T12:03:03.049Z,36.45
2018-03-04T12:05:32.492Z,34.63
2018-03-04T12:08:01.938Z,31.20
2018-03-04T12:10:31.422Z,34.92
2018-03-04T12:13:00.865Z,37.45
2018-03-04T12:15:30.309Z,34.20
2018-03-04T12:17:59.753Z,32.17
2018-03-04T12:20:29.227Z,33.30
2018-03-04T12:22:58.714Z,31.65
2018-03-04T12:25:28.112Z,32.10
2018-03-04T12:27:57.550Z,35.70
2018-03-04T12:30:26.937Z,32.00
2018-03-04T12:32:56.352Z,34.72
2018-03-04T12:35:25.774Z,30.40
2018-03-04T12:37:55.187Z,33.00
2018-03-04T12:40:24.600Z,32.90
2018-03-04T12:42:54.050Z,31.40
2018-03-04T12:45:23.469Z,34.53
2018-03-04T12:47:52.911Z,35.67
2018-03-04T12:50:22.322Z,32.55
2018-03-04T12:52:51.770Z,32.33
2018-03-04T12:55:21.222Z,33.10
2018-03-04T12:57:50.618Z,33.22
2018-03-04T13:00:20.087Z,34.95
2018-03-04T13:02:49.490Z,33.28
2018-03-04T13:05:19.630Z,33.72
2018-03-04T13:07:49.025Z,34.97
2018-03-04T13:10:18.477Z,35.33
2018-03-04T13:12:48.202Z,35.13
2018-03-04T13:15:19.025Z,32.30
2018-03-04T13:17:48.740Z,36.75
2018-03-04T13:20:18.163Z,33.42
2018-03-04T13:22:47.573Z,34.22
2018-03-04T13:25:17.002Z,35.45
2018-03-04T13:27:46.439Z,37.60
2018-03-04T13:30:15.864Z,33.15
2018-03-04T13:32:45.321Z,36.88
2018-03-04T13:35:14.733Z,32.10
2018-03-04T13:37:44.186Z,33.13
2018-03-04T13:40:13.607Z,33.97
2018-03-04T13:42:43.026Z,33.53
2018-03-04T13:45:12.439Z,33.33
2018-03-04T13:47:41.907Z,34.72
2018-03-04T13:50:11.330Z,32.03
2018-03-04T13:52:40.736Z,29.33
2018-03-04T13:55:10.209Z,32.58
2018-03-04T13:57:39.720Z,33.45
2018-03-04T14:00:09.308Z,34.67
2018-03-04T14:02:38.800Z,35.03
2018-03-04T14:05:08.352Z,33.65
2018-03-04T14:07:37.838Z,33.65
2018-03-04T14:10:07.348Z,32.10
2018-03-04T14:12:36.823Z,31.70
2018-03-04T14:15:06.337Z,32.00
2018-03-04T14:17:35.788Z,34.05
2018-03-04T14:20:05.331Z,33.50
2018-03-04T14:22:34.786Z,31.85
2018-03-04T14:25:04.307Z,32.70
2018-03-04T14:27:33.703Z,32.70
2018-03-04T14:30:03.307Z,35.17
2018-03-04T14:32:32.760Z,31.67
2018-03-04T14:35:02.260Z,33.60
2018-03-04T14:37:31.675Z,31.92
2018-03-04T14:40:01.115Z,32.15
2018-03-04T14:42:30.545Z,31.60
2018-03-04T14:44:59.964Z,33.17
2018-03-04T14:47:29.399Z,30.48
2018-03-04T14:49:58.801Z,28.75
2018-03-04T14:52:28.240Z,29.33
2018-03-04T14:54:57.669Z,30.75
2018-03-04T14:57:27.121Z,28.17
2018-03-04T14:59:56.528Z,29.52
2018-03-04T15:02:25.967Z,30.67
2018-03-04T15:04:55.391Z,31.20
2018-03-04T15:07:24.848Z,29.73
2018-03-04T15:09:54.233Z,30.67
2018-03-04T15:12:23.606Z,29.77
2018-03-04T15:14:53.605Z,29.10
2018-03-04T15:17:23.031Z,27.40
2018-03-04T15:19:52.408Z,28.35
2018-03-04T15:22:21.954Z,28.90
2018-03-04T15:24:51.401Z,27.77
2018-03-04T15:27:20.863Z,26.87
2018-03-04T15:29:50.243Z,30.10
2018-03-04T15:32:20.499Z,30.62
2018-03-04T15:34:49.955Z,27.87
2018-03-04T15:37:19.389Z,30.65
2018-03-04T15:39:48.811Z,29.08
2018-03-04T15:42:18.230Z,29.48
2018-03-04T15:44:47.625Z,30.30
2018-03-04T15:47:17.039Z,28.33
2018-03-04T15:49:47.294Z,31.75
2018-03-04T15:52:16.731Z,29.45
2018-03-04T15:54:46.146Z,27.42
2018-03-04T15:57:15.575Z,28.87
2018-03-04T15:59:45.061Z,28.75
2018-03-04T16:02:14.554Z,29.55
2018-03-04T16:04:43.923Z,29.67
2018-03-04T16:07:13.364Z,28.00
2018-03-04T16:09:42.815Z,26.52
2018-03-04T16:12:12.219Z,27.27
2018-03-04T16:14:41.640Z,29.70
2018-03-04T16:17:11.041Z,27.90
2018-03-04T16:19:40.472Z,27.33
2018-03-04T16:22:09.966Z,28.35
2018-03-04T16:24:39.402Z,28.60
2018-03-04T16:27:08.806Z,24.83
2018-03-04T16:29:38.265Z,26.83
2018-03-04T16:32:07.685Z,25.75
2018-03-04T16:34:37.150Z,26.48
2018-03-04T16:37:06.588Z,27.42
2018-03-04T16:39:36.039Z,26.27
2018-03-04T16:42:05.490Z,29.30
2018-03-04T16:44:34.948Z,28.60
2018-03-04T16:47:05.014Z,26.90
2018-03-04T16:49:34.459Z,25.20
2018-03-04T16:52:03.951Z,26.95
2018-03-04T16:54:33.348Z,28.17
2018-03-04T16:57:02.823Z,27.90
2018-03-04T16:59:32.218Z,27.95
2018-03-04T17:02:03.148Z,28.25
2018-03-04T17:04:32.580Z,26.83
2018-03-04T17:07:01.982Z,27.95
2018-03-04T17:09:31.482Z,27.83
2018-03-04T17:12:00.925Z,27.10
2018-03-04T17:14:30.330Z,28.55
2018-03-04T17:16:59.747Z,27.48
2018-03-04T17:19:29.198Z,27.30
2018-03-04T17:21:58.654Z,28.08
2018-03-04T17:24:28.058Z,27.02
2018-03-04T17:26:58.190Z,28.05
2018-03-04T17:29:27.574Z,28.05
2018-03-04T17:31:56.994Z,30.62
2018-03-04T17:34:26.466Z,28.08
2018-03-04T17:36:55.882Z,26.55
2018-03-04T17:39:25.360Z,28.60
2018-03-04T17:41:54.769Z,26.98
2018-03-04T17:44:24.229Z,29.25
2018-03-04T17:46:53.672Z,29.12
2018-03-04T17:49:23.251Z,28.02
2018-03-04T17:51:52.737Z,27.80
2018-03-04T17:54:22.384Z,28.23
2018-03-04T17:56:51.825Z,28.73
2018-03-04T17:59:21.226Z,28.35
2018-03-04T18:01:50.662Z,28.65
2018-03-04T18:04:20.065Z,32.38
2018-03-04T18:06:49.851Z,28.62
2018-03-04T18:09:19.891Z,30.12
2018-03-04T18:11:49.358Z,31.50
2018-03-04T18:14:18.876Z,30.70
2018-03-04T18:16:48.310Z,29.65
2018-03-04T18:19:17.776Z,29.48
2018-03-04T18:21:47.162Z,30.25
2018-03-04T18:24:16.594Z,27.35
2018-03-04T18:26:46.033Z,27.65
2018-03-04T18:29:15.495Z,26.92
2018-03-04T18:31:44.943Z,30.85
2018-03-04T18:34:14.416Z,28.40
2018-03-04T18:36:43.924Z,28.20
2018-03-04T18:39:13.357Z,27.98
2018-03-04T18:41:42.843Z,28.48
2018-03-04T18:44:12.241Z,28.90
2018-03-04T18:46:41.667Z,26.05
2018-03-04T18:49:11.218Z,27.87
2018-03-04T18:51:40.678Z,27.73
2018-03-04T18:54:10.101Z,26.73
2018-03-04T18:56:40.359Z,28.15
2018-03-04T18:59:10.140Z,28.58
2018-03-04T19:01:39.566Z,28.45
2018-03-04T19:04:09.008Z,26.73
2018-03-04T19:06:38.500Z,27.75
2018-03-04T19:09:07.923Z,27.87
2018-03-04T19:11:37.404Z,30.08
2018-03-04T19:14:06.834Z,29.30
2018-03-04T19:16:36.293Z,30.17
2018-03-04T19:19:05.711Z,30.55
2018-03-04T19:21:35.192Z,27.40
2018-03-04T19:24:04.596Z,29.30
2018-03-04T19:26:34.033Z,29.15
2018-03-04T19:29:03.496Z,29.67
2018-03-04T19:31:32.921Z,29.17
2018-03-04T19:34:02.720Z,29.33
2018-03-04T19:36:32.153Z,31.45
2018-03-04T19:39:01.586Z,28.20
2018-03-04T19:41:31.001Z,26.75
2018-03-04T19:44:00.462Z,26.42
2018-03-04T19:46:29.875Z,29.75
2018-03-04T19:48:59.306Z,27.87
2018-03-04T19:51:28.779Z,27.62
2018-03-04T19:53:58.221Z,25.00
2018-03-04T19:56:28.481Z,28.30
2018-03-04T19:58:58.003Z,27.90
2018-03-04T20:01:27.472Z,31.27
2018-03-04T20:03:56.874Z,30.77
2018-03-04T20:06:27.103Z,30.17
2018-03-04T20:08:56.526Z,29.67
2018-03-04T20:11:26.719Z,27.02
2018-03-04T20:13:56.135Z,28.52
2018-03-04T20:16:25.968Z,27.73
2018-03-04T20:18:55.391Z,27.67
2018-03-04T20:21:24.858Z,27.52
2018-03-04T20:23:54.296Z,27.55
2018-03-04T20:26:23.695Z,28.30
2018-03-04T20:28:53.144Z,27.90
2018-03-04T20:31:22.607Z,24.85
2018-03-04T20:33:52.256Z,26.77
2018-03-04T20:36:21.827Z,25.65
2018-03-04T20:38:51.308Z,25.05
2018-03-04T20:41:20.714Z,26.90
2018-03-04T20:43:50.151Z,27.92
2018-03-04T20:46:19.571Z,27.60
2018-03-04T20:48:49.032Z,26.85
2018-03-04T20:51:18.469Z,24.75
2018-03-04T20:53:47.916Z,29.30
2018-03-04T20:56:17.365Z,27.37
2018-03-04T20:58:46.787Z,25.85
2018-03-04T21:01:16.250Z,27.37
2018-03-04T21:03:45.662Z,24.33
2018-03-04T21:06:15.126Z,25.23
2018-03-04T21:08:44.561Z,25.83
2018-03-04T21:11:13.999Z,24.52
2018-03-04T21:13:43.481Z,24.40
2018-03-04T21:16:12.939Z,23.25
2018-03-04T21:18:42.340Z,25.73
2018-03-04T21:21:11.725Z,25.58
2018-03-04T21:23:41.161Z,24.17
2018-03-04T21:26:10.533Z,26.85
2018-03-04T21:28:39.951Z,25.70
2018-03-04T21:31:09.345Z,25.30
2018-03-04T21:33:38.771Z,21.98
2018-03-04T21:36:08.224Z,23.83
2018-03-04T21:38:38.347Z,26.55
2018-03-04T21:41:07.783Z,25.55
2018-03-04T21:43:37.211Z,24.52
2018-03-04T21:46:06.597Z,23.73
2018-03-04T21:48:36.022Z,25.65
2018-03-04T21:51:05.443Z,23.52
2018-03-04T21:53:34.858Z,24.50
2018-03-04T21:56:04.291Z,23.92
2018-03-04T21:58:33.707Z,25.35
2018-03-04T22:01:03.190Z,25.52
2018-03-04T22:03:32.616Z,26.00
2018-03-04T22:06:02.038Z,26.12
2018-03-04T22:08:31.477Z,25.77
2018-03-04T22:11:00.951Z,25.30
2018-03-04T22:13:30.367Z,27.40
2018-03-04T22:15:59.763Z,27.30
2018-03-04T22:18:29.194Z,27.35
2018-03-04T22:20:58.640Z,26.98
2018-03-04T22:23:28.041Z,26.73
2018-03-04T22:25:57.455Z,27.17
2018-03-04T22:28:26.930Z,26.42
2018-03-04T22:30:56.333Z,26.05
2018-03-04T22:33:25.747Z,28.05
2018-03-04T22:35:55.397Z,26.83
2018-03-04T22:38:24.788Z,26.58
2018-03-04T22:40:54.203Z,26.52
2018-03-04T22:43:23.597Z,23.92
2018-03-04T22:45:53.018Z,23.73
2018-03-04T22:48:22.435Z,24.45
2018-03-04T22:50:51.860Z,25.17
2018-03-04T22:53:21.272Z,25.02
2018-03-04T22:55:50.681Z,25.60
2018-03-04T22:58:20.113Z,24.15
2018-03-04T23:00:49.538Z,25.52
2018-03-04T23:03:18.949Z,24.95
2018-03-04T23:05:48.391Z,22.42
2018-03-04T23:08:17.807Z,24.87
2018-03-04T23:10:47.234Z,23.60
2018-03-04T23:13:16.651Z,26.40
2018-03-04T23:15:46.049Z,23.58
2018-03-04T23:18:15.491Z,25.00
2018-03-04T23:20:45.013Z,25.65
2018-03-04T23:23:14.433Z,24.23
2018-03-04T23:25:43.875Z,22.67
2018-03-04T23:28:13.319Z,24.87
2018-03-04T23:30:42.754Z,26.08
2018-03-04T23:33:12.219Z,24.87
2018-03-04T23:35:41.674Z,23.70
2018-03-04T23:38:11.861Z,26.55
2018-03-04T23:40:41.267Z,24.63
2018-03-04T23:43:10.683Z,25.23
2018-03-04T23:45:40.085Z,23.80
2018-03-04T23:48:09.506Z,24.75
2018-03-04T23:50:38.900Z,23.17
2018-03-04T23:53:08.384Z,22.42
2018-03-04T23:55:37.748Z,21.05
2018-03-04T23:58:07.332Z,20.58
